Time;durP1;ratioP1;P1;durP2;ratioP2;P2;SDS_P1;SDS_P2;PMS_P1;PMS_P2;Temp;Humidity;BMP_temperature;BMP_pressure;BME280_temperature;BME280_humidity;BME280_pressure;Samples;Min_cycle;Max_cycle;Signal;HPM_P1;HPM_P2
2023/06/04 00:00:25;;;;;;;;;;;;;;;14.02;53.27;102104.56;5066083;28;1127;-72
2023/06/04 00:02:50;;;;;;;;;;;;;;;13.97;54.18;102098.88;5061985;28;1394;-71
2023/06/04 00:05:15;;;;;;;;;;;;;;;13.94;53.58;102101.72;5063650;28;1446;-73
2023/06/04 00:07:40;;;;;;;;;;;;;;;13.92;53.61;102098.38;5059249;28;1435;-72
2023/06/04 00:10:06;;;;;;;;;;;;;;;13.87;53.62;102095.28;5060222;28;1237;-74
2023/06/04 00:12:31;;;;;;;;;;;;;;;13.84;53.30;102100.75;5059922;28;1251;-74
2023/06/04 00:14:56;;;;;;;;;;;;;;;13.81;54.20;102097.41;5058704;28;1901;-72
2023/06/04 00:17:21;;;;;;;;;;;;;;;13.78;54.39;102087.22;5063000;28;1343;-71
2023/06/04 00:19:47;;;;;;;;;;;;;;;13.78;54.23;102087.22;5065507;28;1264;-72
2023/06/04 00:22:12;;;;;;;;;;;;;;;13.74;54.58;102091.00;5055885;28;1303;-72
2023/06/04 00:24:40;;;;;;;;;;;;;;;13.73;55.75;102089.34;5060968;28;1248;-72
2023/06/04 00:27:05;;;;;;;;;;;;;;;13.70;54.37;102092.16;5056626;28;1313;-71
2023/06/04 00:29:31;;;;;;;;;;;;;;;13.66;54.80;102093.34;5065278;28;1379;-72
2023/06/04 00:31:56;;;;;;;;;;;;;;;13.59;57.26;102099.97;5067246;28;1310;-72
2023/06/04 00:34:21;;;;;;;;;;;;;;;13.53;55.62;102097.78;5061886;28;1326;-73
2023/06/04 00:36:46;;;;;;;;;;;;;;;13.50;55.38;102098.03;5067131;28;1271;-71
2023/06/04 00:39:11;;;;;;;;;;;;;;;13.47;55.52;102087.81;5066777;28;1302;-72
2023/06/04 00:41:37;;;;;;;;;;;;;;;13.44;56.40;102101.09;5067392;28;1214;-71
2023/06/04 00:44:06;;;;;;;;;;;;;;;13.40;56.14;102102.25;5063452;28;1627;-72
2023/06/04 00:46:32;;;;;;;;;;;;;;;13.34;56.37;102102.72;5066010;28;1047;-71
2023/06/04 00:48:57;;;;;;;;;;;;;;;13.31;56.12;102093.34;5063590;28;1885;-72
2023/06/04 00:51:22;;;;;;;;;;;;;;;13.31;56.17;102097.72;5062212;28;1297;-72
2023/06/04 00:53:49;;;;;;;;;;;;;;;13.26;55.62;102091.06;5064535;28;1904;-73
2023/06/04 00:56:14;;;;;;;;;;;;;;;13.25;56.75;102099.00;5058690;28;1907;-72
2023/06/04 00:58:40;;;;;;;;;;;;;;;13.22;56.14;102092.22;5067259;28;1259;-71
2023/06/04 01:01:10;;;;;;;;;;;;;;;13.20;56.23;102091.50;5060560;28;1591;-72
2023/06/04 01:03:37;;;;;;;;;;;;;;;13.18;56.08;102097.75;5065489;28;1246;-72
2023/06/04 01:06:21;;;;;;;;;;;;;;;13.17;56.59;102096.09;5062851;28;1419;-73
2023/06/04 01:08:54;;;;;;;;;;;;;;;13.14;57.30;102097.16;5064601;28;1379;-73
2023/06/04 01:11:30;;;;;;;;;;;;;;;13.11;56.54;102092.16;5061317;28;1307;-74
2023/06/04 01:13:55;;;;;;;;;;;;;;;13.09;56.66;102088.84;5062098;28;1654;-72
2023/06/04 01:16:20;;;;;;;;;;;;;;;13.07;56.66;102088.09;5063013;28;1894;-75
2023/06/04 01:18:47;;;;;;;;;;;;;;;13.02;56.77;102087.63;5063305;28;1364;-72
2023/06/04 01:21:18;;;;;;;;;;;;;;;12.98;57.10;102091.38;5062475;28;1285;-73
2023/06/04 01:23:49;;;;;;;;;;;;;;;12.90;57.78;102088.47;5062682;28;1489;-74
2023/06/04 01:26:14;;;;;;;;;;;;;;;12.85;57.44;102085.38;5063212;28;1249;-73
2023/06/04 01:28:40;;;;;;;;;;;;;;;12.80;57.76;102088.31;5058661;28;1692;-73
2023/06/04 01:31:08;;;;;;;;;;;;;;;12.79;57.65;102091.00;5066969;28;1342;-72
2023/06/04 01:33:33;;;;;;;;;;;;;;;12.79;57.45;102091.00;5060635;28;1165;-72
2023/06/04 01:35:59;;;;;;;;;;;;;;;12.75;57.55;102088.63;5058393;28;1910;-73
2023/06/04 01:38:25;;;;;;;;;;;;;;;12.73;57.76;102093.13;5059323;28;1226;-72
2023/06/04 01:40:50;;;;;;;;;;;;;;;12.71;58.11;102089.78;5065339;28;1600;-73
2023/06/04 01:43:16;;;;;;;;;;;;;;;12.68;58.05;102090.00;5063533;28;1509;-72
2023/06/04 01:45:41;;;;;;;;;;;;;;;12.60;59.58;102081.88;5057316;28;1332;-73
2023/06/04 01:48:06;;;;;;;;;;;;;;;12.54;59.01;102086.69;5065292;28;1611;-72
2023/06/04 01:50:32;;;;;;;;;;;;;;;12.47;58.36;102081.09;5066119;28;1095;-72
2023/06/04 01:52:57;;;;;;;;;;;;;;;12.46;58.78;102079.44;5058385;28;1174;-73
2023/06/04 01:55:24;;;;;;;;;;;;;;;12.42;59.38;102083.16;5062952;28;1894;-71
2023/06/04 01:57:50;;;;;;;;;;;;;;;12.38;59.70;102076.50;5067335;28;1242;-71
2023/06/04 02:00:16;;;;;;;;;;;;;;;12.30;58.29;102074.44;5066802;28;1117;-70
2023/06/04 02:02:42;;;;;;;;;;;;;;;12.26;59.03;102077.34;5057801;28;1067;-70
2023/06/04 02:05:07;;;;;;;;;;;;;;;12.21;60.11;102088.94;5066261;28;1325;-71
2023/06/04 02:07:40;;;;;;;;;;;;;;;12.17;59.54;102091.84;5062647;28;1623;-70
2023/06/04 02:10:06;;;;;;;;;;;;;;;12.16;59.48;102083.22;5067541;28;1123;-70
2023/06/04 02:12:31;;;;;;;;;;;;;;;12.15;59.50;102088.50;5065364;28;1087;-71
2023/06/04 02:14:57;;;;;;;;;;;;;;;12.14;60.41;102090.25;5061214;28;1905;-71
2023/06/04 02:17:22;;;;;;;;;;;;;;;12.07;60.25;102088.19;5058360;28;1444;-73
2023/06/04 02:19:50;;;;;;;;;;;;;;;12.00;60.77;102086.94;5065179;28;1411;-71
2023/06/04 02:22:19;;;;;;;;;;;;;;;11.98;60.01;102094.00;5064384;28;1290;-71
2023/06/04 02:24:45;;;;;;;;;;;;;;;11.96;59.70;102081.09;5063809;28;1337;-71
2023/06/04 02:27:12;;;;;;;;;;;;;;;11.97;59.72;102090.56;5056885;28;1147;-71
2023/06/04 02:29:38;;;;;;;;;;;;;;;11.98;59.99;102084.44;5062180;28;1348;-72
2023/06/04 02:32:03;;;;;;;;;;;;;;;11.99;59.77;102075.72;5058396;28;1219;-71
2023/06/04 02:34:29;;;;;;;;;;;;;;;11.95;59.67;102085.47;5062606;28;1950;-71
2023/06/04 02:36:54;;;;;;;;;;;;;;;11.98;59.72;102078.41;5065600;28;1337;-71
2023/06/04 02:39:20;;;;;;;;;;;;;;;11.92;60.56;102082.25;5059295;28;1502;-70
2023/06/04 02:41:45;;;;;;;;;;;;;;;11.86;60.67;102086.09;5064814;28;1449;-70
2023/06/04 02:44:11;;;;;;;;;;;;;;;11.86;60.40;102090.47;5064437;28;1576;-70
2023/06/04 02:46:36;;;;;;;;;;;;;;;11.82;61.55;102076.03;5061810;28;1091;-71
2023/06/04 02:49:01;;;;;;;;;;;;;;;11.76;61.04;102084.19;5062071;28;1290;-71
2023/06/04 02:51:28;;;;;;;;;;;;;;;11.72;61.34;102082.72;5065500;28;1279;-70
2023/06/04 02:53:53;;;;;;;;;;;;;;;11.73;61.92;102079.19;5066576;28;1485;-70
2023/06/04 02:56:18;;;;;;;;;;;;;;;11.73;61.63;102079.19;5061702;28;1897;-72
2023/06/04 02:58:55;;;;;;;;;;;;;;;11.68;61.12;102082.91;5065980;28;1585;-71
2023/06/04 03:01:23;;;;;;;;;;;;;;;11.63;61.16;102084.16;5059727;28;965;-70
2023/06/04 03:03:49;;;;;;;;;;;;;;;11.59;61.23;102078.34;5060877;28;1409;-72
2023/06/04 03:06:15;;;;;;;;;;;;;;;11.55;61.06;102087.25;5060135;28;1275;-71
2023/06/04 03:08:40;;;;;;;;;;;;;;;11.54;61.57;102084.78;5063292;28;1214;-70
2023/06/04 03:11:06;;;;;;;;;;;;;;;11.48;62.46;102086.00;5064358;28;1210;-71
2023/06/04 03:13:31;;;;;;;;;;;;;;;11.45;60.99;102096.59;5062463;28;1584;-72
2023/06/04 03:16:00;;;;;;;;;;;;;;;11.44;60.83;102085.38;5066262;28;1894;-71
2023/06/04 03:18:26;;;;;;;;;;;;;;;11.43;61.63;102088.91;5066767;28;1161;-73
2023/06/04 03:20:51;;;;;;;;;;;;;;;11.43;60.86;102090.66;5064573;28;1120;-71
2023/06/04 03:23:16;;;;;;;;;;;;;;;11.43;61.26;102082.88;5065582;28;1505;-72
2023/06/04 03:25:41;;;;;;;;;;;;;;;11.38;62.22;102092.72;5064914;28;1476;-71
2023/06/04 03:28:07;;;;;;;;;;;;;;;11.37;62.24;102083.28;5063325;28;1311;-72
2023/06/04 03:30:32;;;;;;;;;;;;;;;11.34;62.37;102079.09;5064021;28;1816;-71
2023/06/04 03:32:57;;;;;;;;;;;;;;;11.32;61.99;102087.94;5066687;28;1449;-71
2023/06/04 03:35:22;;;;;;;;;;;;;;;11.27;61.56;102077.81;5061653;28;2508;-71
2023/06/04 03:37:48;;;;;;;;;;;;;;;11.27;61.31;102087.38;5066303;28;1609;-70
2023/06/04 03:40:13;;;;;;;;;;;;;;;11.26;62.62;102080.53;5063669;28;1375;-71
2023/06/04 03:42:38;;;;;;;;;;;;;;;11.23;61.53;102080.72;5065980;28;1165;-70
2023/06/04 03:45:04;;;;;;;;;;;;;;;11.22;62.78;102089.44;5061511;28;1501;-71
2023/06/04 03:47:29;;;;;;;;;;;;;;;11.21;63.07;102090.38;5065164;28;1297;-71
2023/06/04 03:49:54;;;;;;;;;;;;;;;11.17;61.81;102082.78;5064829;28;1427;-71
2023/06/04 03:52:19;;;;;;;;;;;;;;;11.14;62.96;102090.78;5071156;28;1090;-70
2023/06/04 03:54:44;;;;;;;;;;;;;;;11.12;62.32;102084.81;5061163;28;1909;-70
2023/06/04 03:57:10;;;;;;;;;;;;;;;11.11;63.63;102092.72;5063239;28;1918;-72
2023/06/04 03:59:35;;;;;;;;;;;;;;;11.09;63.15;102095.41;5064744;28;1167;-72
2023/06/04 04:02:00;;;;;;;;;;;;;;;11.09;63.27;102092.81;5063854;28;1355;-71
2023/06/04 04:04:25;;;;;;;;;;;;;;;11.05;64.54;102093.94;5067313;28;1396;-71
2023/06/04 04:06:51;;;;;;;;;;;;;;;11.00;63.41;102096.00;5068344;28;1601;-72
2023/06/04 04:09:16;;;;;;;;;;;;;;;11.00;64.72;102096.00;5066916;28;1177;-70
2023/06/04 04:11:41;;;;;;;;;;;;;;;11.01;63.05;102091.63;5059666;28;1280;-70
2023/06/04 04:14:06;;;;;;;;;;;;;;;11.00;63.45;102093.41;5065370;28;1412;-70
2023/06/04 04:16:31;;;;;;;;;;;;;;;10.95;63.86;102098.03;5066835;28;1890;-70
2023/06/04 04:18:57;;;;;;;;;;;;;;;10.94;64.63;102100.75;5069320;28;920;-75
2023/06/04 04:21:23;;;;;;;;;;;;;;;10.92;63.88;102102.59;5068210;28;1245;-70
2023/06/04 04:23:49;;;;;;;;;;;;;;;10.95;63.92;102108.41;5062149;28;1281;-70
2023/06/04 04:26:16;;;;;;;;;;;;;;;10.99;64.14;102098.69;5062277;28;1265;-71
2023/06/04 04:28:42;;;;;;;;;;;;;;;10.95;64.63;102108.41;5068414;28;1280;-73
2023/06/04 04:31:08;;;;;;;;;;;;;;;10.94;64.43;102108.53;5064855;28;1328;-70
2023/06/04 04:33:39;;;;;;;;;;;;;;;10.95;64.48;102113.63;5057844;28;1259;-70
2023/06/04 04:36:04;;;;;;;;;;;;;;;10.96;64.26;102104.94;5063399;28;2020;-71
2023/06/04 04:38:33;;;;;;;;;;;;;;;10.98;65.06;102102.22;5068215;28;1098;-73
2023/06/04 04:41:00;;;;;;;;;;;;;;;11.00;65.08;102101.19;5066649;28;1512;-71
2023/06/04 04:43:32;;;;;;;;;;;;;;;11.01;64.80;102099.41;5060349;28;1272;-71
2023/06/04 04:45:57;;;;;;;;;;;;;;;11.05;64.88;102104.31;5065517;28;1498;-70
2023/06/04 04:48:23;;;;;;;;;;;;;;;11.10;64.23;102102.28;5062989;28;1461;-70
2023/06/04 04:50:48;;;;;;;;;;;;;;;11.14;63.80;102103.75;5069493;28;1335;-70
2023/06/04 04:53:14;;;;;;;;;;;;;;;11.16;64.30;102107.06;5061380;28;1324;-71
2023/06/04 04:55:39;;;;;;;;;;;;;;;11.23;65.05;102101.50;5059018;28;2005;-71
2023/06/04 04:58:04;;;;;;;;;;;;;;;11.27;63.82;102098.59;5073096;28;1301;-71
2023/06/04 05:00:30;;;;;;;;;;;;;;;11.31;63.93;102101.84;5068197;28;1306;-71
2023/06/04 05:02:55;;;;;;;;;;;;;;;11.34;63.62;102099.03;5064561;28;1242;-72
2023/06/04 05:05:21;;;;;;;;;;;;;;;11.38;64.12;102095.31;5064938;28;1466;-71
2023/06/04 05:07:46;;;;;;;;;;;;;;;11.40;64.25;102098.66;5060911;28;1076;-71
2023/06/04 05:10:12;;;;;;;;;;;;;;;11.39;66.25;102102.19;5057827;28;1464;-72
2023/06/04 05:12:38;;;;;;;;;;;;;;;11.39;65.41;102097.81;5063931;28;1394;-71
2023/06/04 05:15:03;;;;;;;;;;;;;;;11.43;64.73;102101.06;5067279;28;1898;-71
2023/06/04 05:17:29;;;;;;;;;;;;;;;11.46;65.65;102103.44;5060057;28;1383;-72
2023/06/04 05:20:01;;;;;;;;;;;;;;;11.49;64.70;102098.06;5067468;28;1454;-71
2023/06/04 05:22:28;;;;;;;;;;;;;;;11.55;64.84;102100.25;5061582;28;1344;-71
2023/06/04 05:24:53;;;;;;;;;;;;;;;11.59;64.15;102104.31;5055857;28;1309;-71
2023/06/04 05:27:18;;;;;;;;;;;;;;;11.62;63.88;102103.28;5059532;28;1294;-71
2023/06/04 05:29:44;;;;;;;;;;;;;;;11.66;64.76;102102.97;5066473;28;1304;-70
2023/06/04 05:32:09;;;;;;;;;;;;;;;11.69;64.51;102107.97;5061003;28;1718;-71
2023/06/04 05:34:36;;;;;;;;;;;;;;;11.73;65.08;102105.19;5060999;28;1965;-71
2023/06/04 05:37:03;;;;;;;;;;;;;;;11.73;65.62;102100.81;5061795;28;1423;-70
2023/06/04 05:39:29;;;;;;;;;;;;;;;11.79;65.03;102107.38;5061503;28;1445;-71
2023/06/04 05:41:54;;;;;;;;;;;;;;;11.84;64.43;102098.38;5056312;28;1373;-71
2023/06/04 05:44:19;;;;;;;;;;;;;;;11.92;64.65;102100.44;5060945;28;1225;-71
2023/06/04 05:46:44;;;;;;;;;;;;;;;12.00;64.07;102108.59;5068016;28;1208;-73
2023/06/04 05:49:10;;;;;;;;;;;;;;;12.05;65.45;102106.50;5060237;28;1408;-73
2023/06/04 05:51:35;;;;;;;;;;;;;;;12.11;64.20;102100.06;5058455;28;1333;-71
2023/06/04 05:54:01;;;;;;;;;;;;;;;12.14;65.03;102105.88;5061437;28;1481;-72
2023/06/04 05:56:26;;;;;;;;;;;;;;;12.22;64.44;102103.59;5066595;28;1894;-72
2023/06/04 05:58:52;;;;;;;;;;;;;;;12.31;64.47;102103.88;5061991;28;1420;-71
2023/06/04 06:01:18;;;;;;;;;;;;;;;12.40;64.29;102108.47;5064803;28;1409;-71
2023/06/04 06:03:43;;;;;;;;;;;;;;;12.48;64.54;102108.75;5066565;28;1211;-70
2023/06/04 06:06:10;;;;;;;;;;;;;;;12.58;64.32;102109.81;5065306;28;1258;-71
2023/06/04 06:08:35;;;;;;;;;;;;;;;12.68;63.55;102115.22;5056195;28;1189;-73
2023/06/04 06:11:02;;;;;;;;;;;;;;;12.73;64.07;102113.94;5060281;28;1351;-72
2023/06/04 06:13:27;;;;;;;;;;;;;;;12.81;63.79;102115.16;5061593;28;1280;-71
2023/06/04 06:15:55;;;;;;;;;;;;;;;12.88;63.83;102116.41;5056503;28;1886;-70
2023/06/04 06:18:20;;;;;;;;;;;;;;;12.98;63.27;102117.41;5056112;28;1170;-71
2023/06/04 06:20:46;;;;;;;;;;;;;;;13.05;63.31;102112.59;5053716;28;1412;-70
2023/06/04 06:23:11;;;;;;;;;;;;;;;13.11;64.38;102102.56;5061783;28;1149;-70
2023/06/04 06:25:37;;;;;;;;;;;;;;;13.21;63.97;102118.41;5059667;28;1102;-71
2023/06/04 06:28:02;;;;;;;;;;;;;;;13.26;63.01;102106.72;5064313;28;1438;-72
2023/06/04 06:30:28;;;;;;;;;;;;;;;13.33;62.57;102121.91;5057921;28;1316;-70
2023/06/04 06:32:53;;;;;;;;;;;;;;;13.40;62.79;102125.72;5061452;28;1323;-72
2023/06/04 06:35:18;;;;;;;;;;;;;;;13.42;63.09;102123.81;5066417;28;1938;-71
2023/06/04 06:37:44;;;;;;;;;;;;;;;13.49;62.76;102117.25;5057607;28;1175;-71
2023/06/04 06:40:09;;;;;;;;;;;;;;;13.59;62.62;102127.78;5061107;28;1434;-72
2023/06/04 06:42:35;;;;;;;;;;;;;;;13.68;62.01;102120.13;5060317;28;1273;-73
2023/06/04 06:45:00;;;;;;;;;;;;;;;13.73;62.66;102120.63;5063783;28;1119;-71
2023/06/04 06:47:25;;;;;;;;;;;;;;;13.83;62.17;102126.00;5055826;28;1275;-72
2023/06/04 06:49:50;;;;;;;;;;;;;;;13.91;62.06;102122.81;5062024;28;1260;-71
2023/06/04 06:52:19;;;;;;;;;;;;;;;14.03;61.61;102127.09;5059587;28;1596;-72
2023/06/04 06:54:44;;;;;;;;;;;;;;;14.13;61.34;102133.28;5061144;28;1902;-71
2023/06/04 06:57:09;;;;;;;;;;;;;;;14.19;60.74;102127.59;5057000;28;1310;-71
2023/06/04 06:59:35;;;;;;;;;;;;;;;14.27;60.84;102140.88;5065207;28;1379;-71
2023/06/04 07:02:00;;;;;;;;;;;;;;;14.36;60.43;102139.38;5061327;28;1643;-71
2023/06/04 07:04:26;;;;;;;;;;;;;;;14.46;60.75;102144.72;5059036;28;1611;-71
2023/06/04 07:06:51;;;;;;;;;;;;;;;14.53;60.42;102138.94;5062123;28;1382;-71
2023/06/04 07:09:17;;;;;;;;;;;;;;;14.64;60.64;102143.31;5062263;28;1673;-71
2023/06/04 07:11:42;;;;;;;;;;;;;;;14.76;60.14;102142.38;5057677;28;1599;-71
2023/06/04 07:14:07;;;;;;;;;;;;;;;14.87;60.16;102144.97;5057473;28;1290;-72
2023/06/04 07:16:32;;;;;;;;;;;;;;;14.98;59.21;102148.53;5062245;28;1997;-73
2023/06/04 07:18:58;;;;;;;;;;;;;;;15.07;59.33;102145.16;5055768;28;1440;-72
2023/06/04 07:21:23;;;;;;;;;;;;;;;15.16;58.63;102144.44;5065458;28;1418;-73
2023/06/04 07:23:50;;;;;;;;;;;;;;;15.24;58.48;102146.44;5067923;28;1192;-72
2023/06/04 07:26:16;;;;;;;;;;;;;;;15.32;58.28;102149.28;5068108;28;1540;-72
2023/06/04 07:28:41;;;;;;;;;;;;;;;15.45;57.87;102149.09;5061748;28;1264;-72
2023/06/04 07:31:06;;;;;;;;;;;;;;;15.57;57.66;102148.94;5053682;28;1170;-71
2023/06/04 07:33:32;;;;;;;;;;;;;;;15.59;57.30;102146.19;5059894;28;1320;-71
2023/06/04 07:35:57;;;;;;;;;;;;;;;15.68;57.27;102145.47;5067954;28;1960;-74
2023/06/04 07:38:22;;;;;;;;;;;;;;;15.78;56.71;102156.00;5059728;28;1634;-73
2023/06/04 07:40:48;;;;;;;;;;;;;;;15.89;55.81;102146.31;5063889;28;1524;-72
2023/06/04 07:43:13;;;;;;;;;;;;;;;15.98;56.63;102146.50;5067991;28;1508;-72
2023/06/04 07:45:38;;;;;;;;;;;;;;;16.12;55.87;102148.81;5069159;28;1516;-73
2023/06/04 07:48:04;;;;;;;;;;;;;;;16.21;55.54;102150.63;5060570;28;1282;-72
2023/06/04 07:50:29;;;;;;;;;;;;;;;16.32;55.72;102153.16;5065859;28;1552;-72
2023/06/04 07:52:55;;;;;;;;;;;;;;;16.43;54.77;102145.22;5068339;28;1454;-73
2023/06/04 07:55:20;;;;;;;;;;;;;;;16.52;54.87;102145.44;5060104;28;1898;-72
2023/06/04 07:57:45;;;;;;;;;;;;;;;16.57;53.81;102148.44;5067299;28;1259;-72
2023/06/04 08:00:11;;;;;;;;;;;;;;;16.64;55.01;102149.59;5069707;28;1551;-73
2023/06/04 08:02:36;;;;;;;;;;;;;;;16.76;55.14;102143.31;5066443;28;1264;-72
2023/06/04 08:05:02;;;;;;;;;;;;;;;16.85;54.72;102145.13;5060604;28;1336;-73
2023/06/04 08:07:27;;;;;;;;;;;;;;;16.95;54.89;102146.00;5067552;28;1280;-74
2023/06/04 08:09:52;;;;;;;;;;;;;;;17.07;54.90;102144.09;5059222;28;1281;-72
2023/06/04 08:12:18;;;;;;;;;;;;;;;17.22;53.85;102145.34;5066283;28;1294;-74
2023/06/04 08:14:43;;;;;;;;;;;;;;;17.36;53.93;102156.41;5069928;28;1897;-74
2023/06/04 08:17:08;;;;;;;;;;;;;;;17.49;53.31;102152.56;5066360;28;1348;-74
2023/06/04 08:19:33;;;;;;;;;;;;;;;17.59;52.55;102146.47;5058185;28;1246;-72
2023/06/04 08:21:59;;;;;;;;;;;;;;;17.71;51.82;102150.59;5067356;28;1103;-72
2023/06/04 08:24:24;;;;;;;;;;;;;;;17.79;50.27;102158.66;5062736;28;1254;-72
2023/06/04 08:26:50;;;;;;;;;;;;;;;17.83;50.46;102160.00;5063642;28;1647;-72
2023/06/04 08:29:15;;;;;;;;;;;;;;;17.85;49.57;102152.84;5062975;28;1365;-73
2023/06/04 08:31:40;;;;;;;;;;;;;;;17.91;50.00;102160.16;5068018;28;1275;-72
2023/06/04 08:34:06;;;;;;;;;;;;;;;17.99;49.15;102160.25;5063534;28;1298;-72
2023/06/04 08:36:34;;;;;;;;;;;;;;;18.09;49.42;102162.88;5057542;28;1977;-72
2023/06/04 08:39:01;;;;;;;;;;;;;;;18.23;49.63;102161.59;5066695;28;1235;-73
2023/06/04 08:41:34;;;;;;;;;;;;;;;18.33;49.39;102165.03;5062472;28;1223;-75
2023/06/04 08:44:02;;;;;;;;;;;;;;;18.39;48.96;102161.81;5058386;28;1469;-72
2023/06/04 08:46:28;;;;;;;;;;;;;;;18.48;47.42;102170.66;5068692;28;1556;-74
2023/06/04 08:48:54;;;;;;;;;;;;;;;18.57;47.16;102165.34;5066864;28;1398;-72
2023/06/04 08:51:19;;;;;;;;;;;;;;;18.71;46.85;102171.13;5066163;28;1299;-73
2023/06/04 08:53:47;;;;;;;;;;;;;;;18.82;46.62;102161.25;5059407;28;1305;-73
2023/06/04 08:56:12;;;;;;;;;;;;;;;18.92;46.80;102169.06;5056532;28;1913;-73
2023/06/04 08:58:40;;;;;;;;;;;;;;;18.98;42.72;102163.25;5060564;28;1387;-72
2023/06/04 09:01:05;;;;;;;;;;;;;;;18.98;42.57;102168.50;5062960;28;1371;-73
2023/06/04 09:03:32;;;;;;;;;;;;;;;19.00;43.27;102171.81;5060720;28;1223;-74
2023/06/04 09:05:58;;;;;;;;;;;;;;;19.09;40.43;102170.91;5056065;28;1419;-72
2023/06/04 09:08:24;;;;;;;;;;;;;;;19.22;44.61;102167.13;5061532;28;1553;-73
2023/06/04 09:10:51;;;;;;;;;;;;;;;19.34;43.70;102173.81;5065599;28;1354;-72
2023/06/04 09:13:18;;;;;;;;;;;;;;;19.42;43.32;102171.25;5058601;28;1309;-72
2023/06/04 09:15:43;;;;;;;;;;;;;;;19.56;43.99;102168.09;5064131;28;1893;-72
2023/06/04 09:18:09;;;;;;;;;;;;;;;19.74;43.85;102169.91;5061174;28;1327;-73
2023/06/04 09:20:34;;;;;;;;;;;;;;;19.86;42.69;102169.50;5068167;28;1319;-71
2023/06/04 09:22:59;;;;;;;;;;;;;;;19.92;41.44;102173.34;5061032;28;1294;-74
2023/06/04 09:25:26;;;;;;;;;;;;;;;20.02;41.59;102178.53;5057945;28;1244;-74
2023/06/04 09:27:52;;;;;;;;;;;;;;;20.11;41.01;102174.94;5064309;28;1691;-74
2023/06/04 09:30:17;;;;;;;;;;;;;;;20.22;41.67;102173.88;5062364;28;1556;-76
2023/06/04 09:32:42;;;;;;;;;;;;;;;20.23;40.40;102168.44;5060844;28;1278;-76
2023/06/04 09:35:14;;;;;;;;;;;;;;;20.31;39.88;102170.31;5053877;28;1890;-76
2023/06/04 09:37:39;;;;;;;;;;;;;;;20.38;39.63;102168.69;5061816;28;1414;-76
2023/06/04 09:40:06;;;;;;;;;;;;;;;20.48;38.76;102177.34;5067486;28;1156;-75
2023/06/04 09:42:41;;;;;;;;;;;;;;;20.58;40.09;102174.56;5063500;28;1465;-75
2023/06/04 09:45:06;;;;;;;;;;;;;;;20.63;38.95;102167.84;5064192;28;1262;-72
2023/06/04 09:47:38;;;;;;;;;;;;;;;20.66;39.74;102167.53;5067619;28;1869;-73
2023/06/04 09:50:04;;;;;;;;;;;;;;;20.76;37.63;102166.56;5055594;28;1725;-72
2023/06/04 09:52:33;;;;;;;;;;;;;;;20.83;38.75;102162.31;5060925;28;1168;-73
2023/06/04 09:54:58;;;;;;;;;;;;;;;20.94;38.52;102167.31;5062418;28;1969;-75
2023/06/04 09:57:25;;;;;;;;;;;;;;;21.00;36.26;102179.03;5067338;28;1140;-75
2023/06/04 09:59:50;;;;;;;;;;;;;;;21.09;37.51;102168.31;5065347;28;1174;-75
2023/06/04 10:02:19;;;;;;;;;;;;;;;21.19;37.62;102169.00;5057961;28;1319;-75
2023/06/04 10:04:48;;;;;;;;;;;;;;;21.24;37.75;102162.41;5052135;28;1284;-77
2023/06/04 10:07:13;;;;;;;;;;;;;;;21.18;36.54;102167.34;5062529;28;1273;-74
2023/06/04 10:09:45;;;;;;;;;;;;;;;21.30;37.06;102164.44;5066296;28;1108;-75
2023/06/04 10:12:10;;;;;;;;;;;;;;;21.35;35.58;102172.69;5066937;28;1056;-74
2023/06/04 10:14:39;;;;;;;;;;;;;;;21.38;33.77;102162.63;5066731;28;1117;-73
2023/06/04 10:17:06;;;;;;;;;;;;;;;21.38;36.06;102167.06;5053572;28;1902;-74
2023/06/04 10:19:31;;;;;;;;;;;;;;;21.30;32.77;102167.06;5050135;28;1293;-74
2023/06/04 10:21:56;;;;;;;;;;;;;;;21.33;35.28;102169.38;5062475;28;1174;-74
2023/06/04 10:24:23;;;;;;;;;;;;;;;21.48;35.03;102162.47;5061152;28;997;-74
2023/06/04 10:26:49;;;;;;;;;;;;;;;21.60;34.90;102162.97;5060493;28;1336;-74
2023/06/04 10:29:16;;;;;;;;;;;;;;;21.64;33.54;102167.75;5063560;28;1015;-75
2023/06/04 10:31:42;;;;;;;;;;;;;;;21.69;32.93;102165.44;5067203;28;1192;-73
2023/06/04 10:34:07;;;;;;;;;;;;;;;21.74;32.30;102163.16;5052249;28;1367;-75
2023/06/04 10:36:41;;;;;;;;;;;;;;;21.71;33.01;102157.34;5061274;28;1949;-74
2023/06/04 10:39:07;;;;;;;;;;;;;;;21.68;34.10;102162.97;5065715;28;1150;-75
2023/06/04 10:41:32;;;;;;;;;;;;;;;21.75;33.78;102161.31;5062540;28;1251;-77
2023/06/04 10:44:01;;;;;;;;;;;;;;;21.88;33.29;102168.72;5059199;28;1373;-75
2023/06/04 10:46:36;;;;;;;;;;;;;;;21.91;33.41;102163.13;5075389;28;1357;-77
2023/06/04 10:49:02;;;;;;;;;;;;;;;21.97;32.69;102167.75;5058314;28;1287;-73
2023/06/04 10:51:33;;;;;;;;;;;;;;;22.00;33.08;102159.47;5062584;28;1485;-74
2023/06/04 10:53:59;;;;;;;;;;;;;;;22.02;32.95;102170.69;5055082;28;1188;-74
2023/06/04 10:56:28;;;;;;;;;;;;;;;22.05;32.96;102162.44;5062810;28;1898;-76
2023/06/04 10:58:53;;;;;;;;;;;;;;;22.12;33.82;102160.78;5061465;28;1621;-75
2023/06/04 11:01:26;;;;;;;;;;;;;;;22.20;33.21;102155.50;5059902;28;1227;-76
2023/06/04 11:03:51;;;;;;;;;;;;;;;22.20;32.72;102155.50;5061773;28;1296;-75
2023/06/04 11:06:16;;;;;;;;;;;;;;;22.25;32.18;102161.09;5062349;28;1549;-74
2023/06/04 11:08:42;;;;;;;;;;;;;;;22.25;31.78;102165.53;5057378;28;1391;-75
2023/06/04 11:11:12;;;;;;;;;;;;;;;22.31;32.06;102158.75;5056705;28;1511;-73
2023/06/04 11:13:37;;;;;;;;;;;;;;;22.34;31.19;102153.97;5053534;28;1242;-73
2023/06/04 11:16:14;;;;;;;;;;;;;;;22.39;31.12;102156.94;5060992;28;1959;-73
2023/06/04 11:18:39;;;;;;;;;;;;;;;22.43;31.44;102154.78;5056382;28;1371;-72
2023/06/04 11:21:04;;;;;;;;;;;;;;;22.41;30.81;102149.63;5064333;28;1247;-73
2023/06/04 11:23:30;;;;;;;;;;;;;;;22.45;31.83;102155.41;5058795;28;2795;-73
2023/06/04 11:25:55;;;;;;;;;;;;;;;22.53;31.83;102142.97;5057992;28;1408;-75
2023/06/04 11:28:21;;;;;;;;;;;;;;;22.65;32.16;102154.03;5067926;28;1220;-73
2023/06/04 11:31:02;;;;;;;;;;;;;;;22.79;32.30;102158.56;5061608;28;1568;-74
2023/06/04 11:33:28;;;;;;;;;;;;;;;22.87;31.37;102159.53;5047234;28;1294;-73
2023/06/04 11:35:54;;;;;;;;;;;;;;;22.96;31.49;102155.88;5057658;28;1961;-74
2023/06/04 11:38:19;;;;;;;;;;;;;;;22.85;31.08;102151.75;5061852;28;1336;-72
2023/06/04 11:40:54;;;;;;;;;;;;;;;22.87;31.46;102156.88;5061489;28;1489;-73
2023/06/04 11:43:19;;;;;;;;;;;;;;;22.91;32.42;102150.28;5060654;28;1212;-72
2023/06/04 11:45:45;;;;;;;;;;;;;;;22.98;31.67;102151.22;5063288;28;1748;-73
2023/06/04 11:48:10;;;;;;;;;;;;;;;23.10;32.07;102149.00;5060366;28;1391;-74
2023/06/04 11:50:36;;;;;;;;;;;;;;;23.19;31.32;102138.19;5060892;28;1382;-74
2023/06/04 11:53:02;;;;;;;;;;;;;;;23.20;31.78;102139.81;5061893;28;1249;-73
2023/06/04 11:55:27;;;;;;;;;;;;;;;23.16;32.15;102133.22;5056919;28;1967;-74
2023/06/04 11:57:53;;;;;;;;;;;;;;;23.22;32.32;102140.47;5058806;28;1083;-74
2023/06/04 12:00:19;;;;;;;;;;;;;;;23.30;32.15;102129.84;5060710;28;1178;-75
2023/06/04 12:02:51;;;;;;;;;;;;;;;23.26;31.42;102131.19;5057721;28;1202;-73
2023/06/04 12:05:20;;;;;;;;;;;;;;;23.26;32.40;102131.19;5062086;28;1452;-73
2023/06/04 12:07:46;;;;;;;;;;;;;;;23.37;32.16;102129.13;5060635;28;1317;-74
2023/06/04 12:10:11;;;;;;;;;;;;;;;23.37;32.22;102134.41;5063679;28;1124;-73
2023/06/04 12:12:37;;;;;;;;;;;;;;;23.43;31.93;102133.72;5055848;28;1527;-74
2023/06/04 12:15:03;;;;;;;;;;;;;;;23.38;31.55;102130.75;5059747;28;1894;-74
2023/06/04 12:17:28;;;;;;;;;;;;;;;23.37;30.34;102123.81;5059178;28;1224;-73
2023/06/04 12:19:54;;;;;;;;;;;;;;;23.33;31.73;102121.53;5060554;28;1302;-74
2023/06/04 12:22:20;;;;;;;;;;;;;;;23.32;31.44;102122.53;5065560;28;1324;-74
2023/06/04 12:24:56;;;;;;;;;;;;;;;23.32;30.51;102127.81;5067347;28;1267;-73
2023/06/04 12:27:23;;;;;;;;;;;;;;;23.28;31.71;102125.69;5064731;28;1278;-73
2023/06/04 12:30:07;;;;;;;;;;;;;;;23.38;31.86;102120.16;5061360;28;1237;-73
2023/06/04 12:32:36;;;;;;;;;;;;;;;23.47;31.13;102119.13;5065453;28;1309;-73
2023/06/04 12:35:01;;;;;;;;;;;;;;;23.45;31.52;102119.28;5063669;28;1874;-74
2023/06/04 12:37:27;;;;;;;;;;;;;;;23.47;31.69;102119.13;5060880;28;1272;-73
2023/06/04 12:39:53;;;;;;;;;;;;;;;23.42;31.97;102126.75;5061650;28;1526;-75
2023/06/04 12:42:19;;;;;;;;;;;;;;;23.47;31.80;102113.81;5061172;28;1311;-75